Time;durP1;ratioP1;P1;durP2;ratioP2;P2;SDS_P1;SDS_P2;PMS_P1;PMS_P2;Temp;Humidity;BMP_temperature;BMP_pressure;BME280_temperature;BME280_humidity;BME280_pressure;Samples;Min_cycle;Max_cycle;Signal;HPM_P1;HPM_P2
2021/12/15 13:43:03;;;;;;;2.38;0.90;;;9.90;99.90;;;;;;5191469;22;20041;-85
2021/12/15 13:45:32;;;;;;;5.45;0.70;;;9.90;99.90;;;;;;5020177;28;20115;-83
2021/12/15 13:47:59;;;;;;;1.23;0.60;;;10.40;99.90;;;;;;5053058;28;20120;-88
2021/12/15 13:50:29;;;;;;;5.20;0.80;;;9.80;99.90;;;;;;5051213;28;21347;-83
2021/12/15 13:53:00;;;;;;;1.48;0.60;;;9.70;99.90;;;;;;5034537;28;20411;-83
2021/12/15 13:55:35;;;;;;;1.80;0.50;;;10.20;99.90;;;;;;5016821;28;20045;-84
2021/12/15 13:58:09;;;;;;;3.80;1.23;;;9.80;99.90;;;;;;5034468;28;20045;-88
2021/12/15 14:00:57;;;;;;;4.13;0.60;;;10.10;99.90;;;;;;5034319;28;20053;-84
2021/12/15 14:03:48;;;;;;;3.20;0.95;;;9.60;99.90;;;;;;5034371;28;20452;-89
2021/12/15 14:06:23;;;;;;;1.80;0.50;;;9.60;99.90;;;;;;5034262;28;20144;-86
2021/12/15 14:08:51;;;;;;;;;;;9.50;99.90;;;;;;5034805;28;20045;-87
2021/12/15 14:11:26;;;;;;;1.67;0.60;;;9.70;99.90;;;;;;5034090;28;19991;-86
2021/12/15 14:14:23;;;;;;;3.58;1.25;;;9.90;99.90;;;;;;5034239;28;20049;-85
2021/12/15 14:16:54;;;;;;;1.98;0.60;;;9.50;99.90;;;;;;5027901;28;20099;-83
2021/12/15 14:19:26;;;;;;;1.88;0.60;;;9.90;99.90;;;;;;5034316;28;20080;-83
2021/12/15 14:21:57;;;;;;;1.10;0.60;;;9.40;99.90;;;;;;5017331;28;20049;-90
2021/12/15 14:24:23;;;;;;;1.95;0.45;;;9.90;99.90;;;;;;5016320;28;20061;-88
2021/12/15 14:26:49;;;;;;;1.33;0.50;;;9.60;99.90;;;;;;5033757;28;20460;-86
2021/12/15 14:29:23;;;;;;;1.65;0.40;;;9.20;99.90;;;;;;5033877;28;20064;-89
2021/12/15 14:31:50;;;;;;;0.75;0.40;;;9.20;99.90;;;;;;5000434;28;20042;-90
2021/12/15 14:34:22;;;;;;;0.77;0.45;;;9.10;99.90;;;;;;5033757;28;20409;-88
2021/12/15 14:36:54;;;;;;;3.95;0.60;;;9.30;99.90;;;;;;5032924;28;20061;-84
2021/12/15 14:39:23;;;;;;;0.77;0.40;;;9.10;99.90;;;;;;5033540;28;20080;-83
2021/12/15 14:41:53;;;;;;;2.97;0.50;;;9.00;99.90;;;;;;5033180;28;20504;-84
2021/12/15 14:44:32;;;;;;;0.45;0.30;;;9.00;99.90;;;;;;5033578;28;20057;-83
2021/12/15 14:47:05;;;;;;;2.40;0.55;;;8.90;99.90;;;;;;5033546;28;20134;-86
2021/12/15 14:49:38;;;;;;;4.65;0.60;;;8.90;99.90;;;;;;5015668;28;20061;-84
2021/12/15 14:52:13;;;;;;;1.38;0.40;;;8.90;99.90;;;;;;5033334;28;20083;-84
2021/12/15 14:54:40;;;;;;;8.57;0.88;;;8.90;99.90;;;;;;5033265;28;20056;-84
2021/12/15 14:57:10;;;;;;;2.20;0.60;;;9.20;99.90;;;;;;5015587;28;20053;-83
2021/12/15 14:59:51;;;;;;;0.60;0.38;;;8.90;99.90;;;;;;5015350;28;20057;-82
2021/12/15 15:02:23;;;;;;;0.80;0.40;;;8.90;99.90;;;;;;5015613;28;20124;-85
2021/12/15 15:05:01;;;;;;;1.85;0.47;;;8.90;99.90;;;;;;5033371;28;20458;-86
2021/12/15 15:07:32;;;;;;;1.27;0.50;;;8.90;99.90;;;;;;5015513;28;20047;-86
2021/12/15 15:09:59;;;;;;;2.03;0.65;;;8.90;99.90;;;;;;5033286;28;20046;-84
2021/12/15 15:12:28;;;;;;;1.95;0.90;;;9.50;99.90;;;;;;5032926;28;20041;-88
2021/12/15 15:15:00;;;;;;;1.33;0.40;;;8.90;99.90;;;;;;5033019;28;20109;-84
2021/12/15 15:17:35;;;;;;;0.60;0.40;;;8.90;99.90;;;;;;5032996;28;20053;-84
2021/12/15 15:20:14;;;;;;;1.65;0.55;;;8.90;99.90;;;;;;5033189;28;20056;-86
2021/12/15 15:22:41;;;;;;;0.90;0.40;;;9.40;99.90;;;;;;5032881;28;20497;-83
2021/12/15 15:25:09;;;;;;;2.33;0.60;;;8.90;99.90;;;;;;5033089;28;20064;-86
2021/12/15 15:27:39;;;;;;;1.15;0.55;;;9.00;99.90;;;;;;5015248;28;20050;-86
2021/12/15 15:30:12;;;;;;;3.25;0.65;;;9.00;99.90;;;;;;5015009;28;20508;-87
2021/12/15 15:32:42;;;;;;;2.40;0.60;;;9.10;99.90;;;;;;5033125;28;20112;-85
2021/12/15 15:35:18;;;;;;;1.05;0.50;;;9.50;99.90;;;;;;5043770;28;20057;-86
2021/12/15 15:37:46;;;;;;;2.35;1.02;;;9.00;99.90;;;;;;5052090;28;20115;-89
2021/12/15 15:40:34;;;;;;;2.92;0.80;;;9.10;99.90;;;;;;5051697;28;20053;-90
2021/12/15 15:43:19;;;;;;;1.40;0.60;;;9.10;99.90;;;;;;5029347;28;20107;-84
2021/12/15 15:45:51;;;;;;;1.50;0.63;;;9.10;99.90;;;;;;5052433;28;20059;-91
2021/12/15 15:48:20;;;;;;;1.67;0.70;;;9.10;99.90;;;;;;5055138;28;20053;-89
2021/12/15 15:50:51;;;;;;;3.22;1.10;;;9.10;99.90;;;;;;5038449;28;20052;-83
2021/12/15 15:53:17;;;;;;;1.60;0.40;;;9.50;99.90;;;;;;5030709;28;20187;-86
2021/12/15 15:55:45;;;;;;;0.57;0.45;;;9.30;99.90;;;;;;5055782;28;20531;-88
2021/12/15 15:58:18;;;;;;;3.17;0.65;;;9.10;99.90;;;;;;5055325;28;20510;-91
2021/12/15 16:00:58;;;;;;;1.83;0.60;;;9.60;99.90;;;;;;5032981;28;20491;-87
2021/12/15 16:03:28;;;;;;;1.77;0.80;;;9.10;99.90;;;;;;5030233;28;20057;-85
2021/12/15 16:05:57;;;;;;;1.38;0.60;;;9.20;99.90;;;;;;5055940;28;20049;-84
2021/12/15 16:08:27;;;;;;;1.20;0.50;;;9.10;99.90;;;;;;5036897;28;20057;-86
2021/12/15 16:10:55;;;;;;;2.53;0.68;;;9.80;99.90;;;;;;5030530;28;20113;-87
2021/12/15 16:13:26;;;;;;;4.22;0.70;;;9.20;99.90;;;;;;5029641;28;20047;-86
2021/12/15 16:16:09;;;;;;;3.80;0.38;;;9.20;99.90;;;;;;5029669;28;20489;-84
2021/12/15 16:18:43;;;;;;;1.13;0.47;;;9.10;99.90;;;;;;5054833;28;20125;-85
2021/12/15 16:21:15;;;;;;;2.13;0.70;;;9.00;99.90;;;;;;5055715;28;20440;-85
2021/12/15 16:23:48;;;;;;;2.53;0.60;;;9.30;99.90;;;;;;5022453;28;20045;-86
2021/12/15 16:26:13;;;;;;;2.10;0.50;;;9.20;99.90;;;;;;5055282;28;20083;-85
2021/12/15 16:28:42;;;;;;;1.65;0.50;;;9.40;99.90;;;;;;5029950;28;20457;-87
2021/12/15 16:31:11;;;;;;;1.17;0.60;;;9.50;99.90;;;;;;5014299;28;20060;-86
2021/12/15 16:33:45;;;;;;;4.57;0.80;;;9.70;99.90;;;;;;5034325;28;20095;-87
2021/12/15 16:36:11;;;;;;;1.80;0.60;;;9.10;99.90;;;;;;5055093;28;20041;-86
2021/12/15 16:38:42;;;;;;;1.55;0.50;;;9.60;99.90;;;;;;5029803;28;20128;-88
2021/12/15 16:41:17;;;;;;;1.63;0.80;;;9.00;99.90;;;;;;5029624;28;20095;-87
2021/12/15 16:43:53;;;;;;;3.53;0.73;;;9.00;99.90;;;;;;5054694;28;20137;-86
2021/12/15 16:46:28;;;;;;;2.72;0.60;;;8.90;99.90;;;;;;5030576;28;20383;-86
2021/12/15 16:48:58;;;;;;;2.00;0.70;;;8.90;99.90;;;;;;5029210;28;20047;-87
2021/12/15 16:51:25;;;;;;;3.33;0.60;;;9.20;99.90;;;;;;5029473;28;20288;-86
2021/12/15 16:53:55;;;;;;;1.25;0.50;;;9.00;99.90;;;;;;5028805;28;20063;-88
2021/12/15 16:56:39;;;;;;;0.80;0.50;;;9.00;99.90;;;;;;5029497;28;20053;-86
2021/12/15 16:59:13;;;;;;;0.63;0.50;;;8.60;99.90;;;;;;5050171;28;20382;-87
2021/12/15 17:02:12;;;;;;;0.90;0.50;;;8.60;99.90;;;;;;5028920;28;20056;-85
2021/12/15 17:04:43;;;;;;;2.22;0.70;;;8.40;99.90;;;;;;5028714;28;20064;-85
2021/12/15 17:07:09;;;;;;;1.52;0.57;;;8.70;99.90;;;;;;5047617;28;20037;-88
2021/12/15 17:10:07;;;;;;;1.30;0.55;;;8.40;99.90;;;;;;5054696;28;20048;-87
2021/12/15 17:12:38;;;;;;;0.68;0.57;;;8.30;99.90;;;;;;4969486;28;20121;-88
2021/12/15 17:15:30;;;;;;;1.05;0.57;;;8.50;99.90;;;;;;4949945;28;20097;-88
2021/12/15 17:17:58;;;;;;;1.48;0.73;;;8.60;99.90;;;;;;4950257;28;20546;-88
2021/12/15 17:20:24;;;;;;;3.88;1.05;;;8.30;99.90;;;;;;4949652;28;20479;-84
2021/12/15 17:23:29;;;;;;;3.75;0.73;;;8.20;99.90;;;;;;4949892;28;20057;-87
2021/12/15 17:26:11;;;;;;;0.77;0.50;;;8.20;99.90;;;;;;4962953;28;20466;-87
2021/12/15 17:28:43;;;;;;;1.73;0.70;;;8.10;99.90;;;;;;4968979;28;20097;-89
2021/12/15 17:31:41;;;;;;;1.80;0.50;;;8.30;99.90;;;;;;4950472;28;20054;-88
2021/12/15 17:34:19;;;;;;;2.30;0.75;;;8.30;99.90;;;;;;4947842;28;20062;-88
2021/12/15 17:37:18;;;;;;;0.75;0.70;;;8.30;99.90;;;;;;4969725;28;20096;-90
2021/12/15 17:39:49;;;;;;;1.70;0.88;;;7.90;99.90;;;;;;4979399;28;20046;-89
2021/12/15 17:45:24;;;;;;;4.53;1.88;;;7.70;99.90;;;;;;4962643;28;20062;-87
2021/12/15 17:47:56;;;;;;;4.22;3.15;;;7.90;99.90;;;;;;4969671;28;20055;-87
2021/12/15 17:50:30;;;;;;;3.88;3.00;;;8.20;99.90;;;;;;4982292;28;20054;-93
2021/12/15 17:53:14;;;;;;;4.38;3.03;;;7.70;99.90;;;;;;4965026;28;20059;-89
2021/12/15 17:55:45;;;;;;;4.22;2.85;;;8.00;99.90;;;;;;4974926;28;20057;-90
2021/12/15 17:58:22;;;;;;;5.93;2.63;;;7.70;99.90;;;;;;4981320;28;20075;-91
2021/12/15 18:01:00;;;;;;;3.28;1.90;;;7.60;99.90;;;;;;4983539;28;20046;-90
2021/12/15 18:03:34;;;;;;;4.45;1.55;;;7.50;99.90;;;;;;4983004;28;20054;-92
2021/12/15 18:06:02;;;;;;;2.20;1.58;;;7.50;99.90;;;;;;4987568;28;20069;-90
2021/12/15 18:08:28;;;;;;;2.90;1.40;;;7.40;99.90;;;;;;4966382;28;20372;-91
2021/12/15 18:11:06;;;;;;;5.70;1.70;;;7.30;99.90;;;;;;4977641;28;20562;-87
2021/12/15 18:13:34;;;;;;;1.88;1.33;;;7.60;99.90;;;;;;4983827;28;20129;-90
2021/12/15 18:16:00;;;;;;;6.18;1.58;;;7.80;99.90;;;;;;4980764;28;20051;-93
2021/12/15 18:18:27;;;;;;;6.32;1.98;;;7.70;99.90;;;;;;4981695;28;20098;-91
2021/12/15 18:20:55;;;;;;;1.58;1.20;;;7.50;99.90;;;;;;4975921;28;20133;-84
2021/12/15 18:23:23;;;;;;;2.65;1.40;;;7.90;99.90;;;;;;5050861;28;20052;-87
2021/12/15 18:25:50;;;;;;;5.82;1.20;;;7.30;99.90;;;;;;5053255;28;20047;-89
2021/12/15 18:28:15;;;;;;;2.60;1.23;;;8.90;99.90;;;;;;5053418;28;20504;-90
2021/12/15 18:30:45;;;;;;;3.17;1.17;;;7.30;99.90;;;;;;5052964;28;20091;-90
2021/12/15 18:33:16;;;;;;;1.45;1.00;;;7.20;99.90;;;;;;5043841;28;20044;-91
2021/12/15 18:35:46;;;;;;;5.07;1.45;;;7.50;99.90;;;;;;5052961;28;20057;-89
2021/12/15 18:38:16;;;;;;;4.03;1.35;;;7.10;99.90;;;;;;5036226;28;20064;-95
2021/12/15 18:40:47;;;;;;;3.20;1.60;;;7.30;99.90;;;;;;5010721;28;20072;-90
2021/12/15 18:43:20;;;;;;;2.45;1.77;;;7.20;99.90;;;;;;5037351;28;20444;-88
2021/12/15 18:45:56;;;;;;;1.85;1.00;;;7.00;99.90;;;;;;5027368;28;20061;-90
2021/12/15 18:48:31;;;;;;;2.80;1.33;;;7.20;99.90;;;;;;5020042;28;20092;-88
2021/12/15 18:57:50;;;;;;;4.22;1.23;;;7.00;99.90;;;;;;5208349;22;20132;-89
2021/12/15 19:00:55;;;;;;;5.28;1.00;;;7.60;99.90;;;;;;5015208;28;20604;-87
2021/12/15 19:03:28;;;;;;;1.92;1.10;;;7.00;99.90;;;;;;5015402;28;20060;-88
2021/12/15 19:06:06;;;;;;;3.97;1.20;;;7.40;99.90;;;;;;5025651;28;20072;-87
2021/12/15 19:08:42;;;;;;;2.08;1.00;;;6.90;99.90;;;;;;5015201;28;20053;-88
2021/12/15 19:11:13;;;;;;;3.38;1.10;;;6.90;99.90;;;;;;4999955;28;20057;-89
2021/12/15 19:13:46;;;;;;;2.22;0.93;;;6.80;99.90;;;;;;5032063;28;20057;-90
2021/12/15 19:16:23;;;;;;;3.00;1.58;;;7.40;99.90;;;;;;5014467;28;20050;-89
2021/12/15 19:19:09;;;;;;;1.83;1.27;;;6.90;99.90;;;;;;4998596;28;20057;-87
2021/12/15 19:21:43;;;;;;;3.85;1.38;;;6.20;99.90;;;;;;5014202;28;20053;-88
2021/12/15 19:24:12;;;;;;;5.68;1.48;;;7.30;99.90;;;;;;5032120;28;20183;-88
2021/12/15 19:26:46;;;;;;;2.85;1.00;;;6.90;99.90;;;;;;5014189;28;20469;-86
2021/12/15 19:33:07;;;;;;;4.45;1.17;;;7.30;99.90;;;;;;4895372;29;20100;-87
2021/12/15 19:35:59;;;;;;;6.78;1.60;;;7.10;99.90;;;;;;4898043;29;20052;-84
2021/12/15 19:38:31;;;;;;;3.40;1.13;;;6.90;99.90;;;;;;4842697;29;20125;-87
2021/12/15 19:41:16;;;;;;;4.80;1.70;;;7.60;99.90;;;;;;4847684;29;20260;-88
2021/12/15 19:47:38;;;;;;;8.60;1.75;;;6.70;99.90;;;;;;4852670;29;20166;-86
2021/12/15 19:50:47;;;;;;;;;;;;;;;;;;;;;
2021/12/15 19:53:43;;;;;;;4.72;1.40;;;6.80;99.90;;;;;;4852283;29;20045;-87
2021/12/15 20:04:05;;;;;;;2.95;1.20;;;6.80;99.90;;;;;;4800180;29;20084;-87
2021/12/15 20:07:17;;;;;;;2.03;1.15;;;6.80;99.90;;;;;;4802476;29;20055;-87
2021/12/15 20:10:37;;;;;;;1.95;0.85;;;6.70;99.90;;;;;;4809758;29;20058;-88
2021/12/15 20:17:16;;;;;;;1.30;1.00;;;6.70;99.90;;;;;;4801589;29;20054;-86
2021/12/15 20:20:37;;;;;;;;;;;;;;;;;;;;;
2021/12/15 20:34:01;;;;;;;4.10;1.42;;;6.60;99.90;;;;;;4683097;30;20499;-86
2021/12/15 20:36:27;;;;;;;3.67;1.38;;;7.20;99.90;;;;;;4695304;30;20068;-90
2021/12/15 20:39:04;;;;;;;5.40;1.65;;;6.50;99.90;;;;;;4700302;30;20146;-92
2021/12/15 20:41:35;;;;;;;1.70;0.88;;;6.60;99.90;;;;;;4699177;30;20151;-90
2021/12/15 20:44:02;;;;;;;2.28;0.90;;;6.50;99.90;;;;;;4726276;30;20413;-90
2021/12/15 20:46:28;;;;;;;1.70;1.00;;;6.50;99.90;;;;;;4761255;30;20590;-89
2021/12/15 20:49:00;;;;;;;2.47;1.10;;;6.50;99.90;;;;;;4783491;30;20047;-90
2021/12/15 20:51:29;;;;;;;2.22;1.10;;;6.50;99.90;;;;;;4759341;30;20090;-91
2021/12/15 20:54:06;;;;;;;1.92;1.00;;;6.50;99.90;;;;;;4774813;30;20087;-86
2021/12/15 20:56:36;;;;;;;2.47;1.20;;;6.80;99.90;;;;;;4796339;29;20181;-91
2021/12/15 20:59:03;;;;;;;2.22;1.20;;;6.50;99.90;;;;;;4876953;29;20057;-92
2021/12/15 21:01:29;;;;;;;1.98;1.23;;;6.40;99.90;;;;;;4929716;29;20051;-89
2021/12/15 21:03:57;;;;;;;3.88;1.35;;;5.20;99.90;;;;;;4959764;28;20055;-86
2021/12/15 21:06:49;;;;;;;3.30;1.20;;;6.90;99.90;;;;;;4984325;28;20097;-89
2021/12/15 21:09:24;;;;;;;2.85;1.10;;;6.40;99.90;;;;;;5003606;28;20081;-92
2021/12/15 21:11:55;;;;;;;4.10;1.20;;;7.80;99.90;;;;;;5014596;28;20057;-90
2021/12/15 21:14:46;;;;;;;5.40;1.30;;;7.10;99.90;;;;;;4996740;28;20409;-88
2021/12/15 21:17:33;;;;;;;3.20;1.30;;;7.10;99.90;;;;;;5013962;28;20104;-89
2021/12/15 21:20:08;;;;;;;2.40;1.10;;;7.00;99.90;;;;;;5014663;28;20173;-89
2021/12/15 21:22:40;;;;;;;2.35;1.10;;;6.40;99.90;;;;;;5014576;28;20425;-92
2021/12/15 21:25:06;;;;;;;2.63;1.48;;;6.40;99.90;;;;;;4996721;28;20053;-88
2021/12/15 21:27:57;;;;;;;4.35;1.27;;;6.30;99.90;;;;;;4996332;28;20527;-88
2021/12/15 21:30:32;;;;;;;4.88;1.48;;;7.20;99.90;;;;;;5012141;28;20046;-86
2021/12/15 21:33:24;;;;;;;3.72;1.20;;;6.40;99.90;;;;;;4997599;28;20081;-90
2021/12/15 21:35:56;;;;;;;2.08;0.95;;;6.30;99.90;;;;;;4864839;29;20067;-88
2021/12/15 21:38:25;;;;;;;4.60;1.30;;;6.30;99.90;;;;;;4882026;29;20525;-87
2021/12/15 21:40:54;;;;;;;2.33;1.30;;;6.80;99.90;;;;;;4893535;29;20044;-89
2021/12/15 21:43:21;;;;;;;2.47;1.25;;;6.80;99.90;;;;;;4899779;29;20160;-86
2021/12/15 21:45:50;;;;;;;1.88;0.93;;;6.90;99.90;;;;;;4915108;29;20083;-86
2021/12/15 21:48:19;;;;;;;2.95;1.08;;;5.80;99.90;;;;;;4900254;29;20047;-87
2021/12/15 21:50:49;;;;;;;3.03;1.52;;;7.00;99.90;;;;;;4897927;29;20525;-86
2021/12/15 21:53:50;;;;;;;6.75;1.60;;;6.20;99.90;;;;;;4884332;29;20040;-87
2021/12/15 21:56:23;;;;;;;2.10;1.00;;;6.10;99.90;;;;;;4916892;29;20549;-87
2021/12/15 21:59:08;;;;;;;3.58;1.40;;;6.30;99.90;;;;;;4917378;29;20044;-92
2021/12/15 22:05:50;;;;;;;;;;;;;;;;;;;;;
2021/12/15 22:24:21;;;;;;;;;;;;;;;;;;;;;
2021/12/15 22:30:06;;;;;;;7.25;1.65;;;6.50;99.90;;;;;;4880429;29;20441;-89
2021/12/15 22:33:08;;;;;;;2.33;1.33;;;6.30;99.90;;;;;;4896089;29;20061;-90
2021/12/15 22:35:37;;;;;;;3.00;1.45;;;6.40;99.90;;;;;;4879289;29;20065;-91
2021/12/15 22:38:05;;;;;;;3.10;1.80;;;6.50;99.90;;;;;;4865057;29;20128;-93
2021/12/15 22:51:23;;;;;;;2.75;1.40;;;6.30;99.90;;;;;;4937086;29;20062;-89
2021/12/15 22:54:16;;;;;;;3.20;1.40;;;5.90;99.90;;;;;;4855790;29;20078;-88
2021/12/15 22:56:44;;;;;;;3.58;1.75;;;6.40;99.90;;;;;;4806026;29;20065;-92
2021/12/15 23:02:49;;;;;;;;;;;;;;;;;;;;;
2021/12/15 23:06:10;;;;;;;;;;;;;;;;;;;;;
2021/12/15 23:08:39;;;;;;;5.05;1.95;;;6.50;99.90;;;;;;4821518;29;20512;-91
2021/12/15 23:19:19;;;;;;;;;;;;;;;;;;;;;
2021/12/15 23:25:12;;;;;;;8.38;2.22;;;7.20;99.90;;;;;;4720321;30;20040;-89
2021/12/15 23:27:40;;;;;;;3.67;1.85;;;7.30;99.90;;;;;;4763765;29;20123;-90
2021/12/15 23:30:12;;;;;;;3.83;1.85;;;6.60;99.90;;;;;;4794934;29;20419;-90
2021/12/15 23:32:39;;;;;;;3.92;1.90;;;6.90;99.90;;;;;;4809887;29;20048;-90
2021/12/15 23:37:38;;;;;;;8.10;3.42;;;7.00;99.90;;;;;;4842675;29;20522;-90
